INFORMAÇÕES METEOROLÓGICAS
METAR FOR SBMK
ADDS - METARS form results

(1054 UTC 18 July 2019)
Data provider http://aviationweather.gov/metar/data/
 
METAR text: SBMK 181000Z 09003KT 9999 FEW030 15/11 Q1024
Conditions at: SBMK (MONTES CLAROS , BR) observed 1000 UTC 18 July 2019
Temperature: 15.0°C (59°F)
Dewpoint: 11.0°C (52°F) [RH = 77%]
Pressure (altimeter): 30.24 inches Hg (1024.0 mb)
Winds: from the E (90 degrees) at 3 MPH (3 knots; 1.5 m/s)
Visibility: 6 or more miles (10+ km)
Ceiling: at least 12,000 feet AGL
Clouds: few clouds at 3000 feet AGL
Weather: no significant weather observed at this time

 MAPA DO AEROPORTO

 INFORMAÇÕES DA PISTA
Pista 12 Tamanho da pista 6890 ft Largura da pista 148 ft
Elevação da pista 0 ft Ranhura da pista 0 ft Proa da pista 0
Pista 30 Tamanho da pista 6890 ft Largura da pista 148 ft
Elevação da pista 0 ft Ranhura da pista 0 ft Proa da pista 0

 FREQUÊNCIAS DO AEROPORTO
Tipo AFIS Nome RDO Frequência 131.7 MHZ

 AUXÍLIOS DE NAVEGAÇÃO PRÓXIMOS AO AEROPORTO
Tipo NDB Nome Montes Claros Frequência 310 KHZ





Powered by Virtual Airlines Manager [v2.6.2]